North Topsail Beach, North Carolina
Current Conditions -  °F | °C
As of 6:30 AM on Wednesday 26 Nov 2014 (Local Time) from KNCA Reporting Station
Overcast Overcast  
Wind Chill: 63°   Ceiling: 1200
Heat Index: 63°   Visibility: 7mi
Dew Point: 62°   Wind: 7mph
Humidity: 97%   Direction: 70°ENE
Pressure: 29.76"   Gusts: NA
Location:  34.5396°N, 77.4388°W
Report Text: KNCA 261130Z AUTO 07006KT 7SM SCT005 OVC012 17/17 A2976 RMK AO2 T01720167
Loading
Personal Weather Stations






























Interactive Weather Map New forecast layout! Learn more

10-Day Weather Forecast

Advertisements
Track Severe Weather on mobile